createdAt,value
2022-12-08T00:00:23.001Z,15.9
2022-12-08T00:05:25.133Z,15.9
2022-12-08T00:10:48.276Z,15.9
2022-12-08T00:15:29.531Z,15.9
2022-12-08T00:20:31.566Z,15.8
2022-12-08T00:25:33.710Z,15.8
2022-12-08T00:30:35.824Z,15.8
2022-12-08T00:35:42.858Z,15.7
2022-12-08T00:40:40.148Z,15.7
2022-12-08T00:45:42.337Z,15.7
2022-12-08T00:50:44.399Z,15.7
2022-12-08T00:55:46.552Z,15.7
2022-12-08T01:00:48.727Z,15.7
2022-12-08T01:05:50.819Z,15.6
2022-12-08T01:10:52.994Z,15.6
2022-12-08T01:15:55.314Z,15.6
2022-12-08T01:20:57.462Z,15.5
2022-12-08T01:25:59.806Z,15.5
2022-12-08T01:31:02.099Z,15.5
2022-12-08T01:36:04.356Z,15.4
2022-12-08T01:41:06.538Z,15.4
2022-12-08T01:46:08.709Z,15.4
2022-12-08T01:51:10.782Z,15.4
2022-12-08T01:56:12.951Z,15.3
2022-12-08T02:01:15.090Z,15.3
2022-12-08T02:06:17.199Z,15.3
2022-12-08T02:11:19.370Z,15.2
2022-12-08T02:16:21.731Z,15.2
2022-12-08T02:21:23.970Z,15.2
2022-12-08T02:26:26.383Z,15.1
2022-12-08T02:31:28.536Z,15.1
2022-12-08T02:36:30.631Z,15.1
2022-12-08T02:41:32.783Z,15.1
2022-12-08T02:46:34.939Z,15.1
2022-12-08T02:51:37.027Z,15
2022-12-08T02:56:39.179Z,15
2022-12-08T03:01:41.769Z,15
2022-12-08T03:06:44.012Z,15
2022-12-08T03:11:46.277Z,14.9
2022-12-08T03:16:48.397Z,14.9
2022-12-08T03:21:50.643Z,14.9
2022-12-08T03:26:52.812Z,14.9
2022-12-08T03:31:54.925Z,14.9
2022-12-08T03:36:57.141Z,14.8
2022-12-08T03:41:59.326Z,14.8
2022-12-08T03:47:01.439Z,14.8
2022-12-08T03:52:03.574Z,14.8
2022-12-08T03:57:05.722Z,14.8
2022-12-08T04:02:08.160Z,14.8
2022-12-08T04:07:10.301Z,14.7
2022-12-08T04:12:12.680Z,14.7
2022-12-08T04:17:14.806Z,14.7
2022-12-08T04:22:16.954Z,14.7
2022-12-08T04:27:19.119Z,14.6
2022-12-08T04:32:21.224Z,14.6
2022-12-08T04:37:23.372Z,14.6
2022-12-08T04:42:25.770Z,14.6
2022-12-08T04:47:27.960Z,14.6
2022-12-08T04:52:30.253Z,14.6
2022-12-08T04:57:32.422Z,14.6
2022-12-08T05:02:34.755Z,14.5
2022-12-08T05:07:36.840Z,14.5
2022-12-08T05:12:39.148Z,14.5
2022-12-08T05:17:41.457Z,14.5
2022-12-08T05:27:45.777Z,14.5
2022-12-08T05:32:47.913Z,14.5
2022-12-08T05:37:50.055Z,14.5
2022-12-08T05:42:52.231Z,14.6
2022-12-08T05:47:54.349Z,14.7
2022-12-08T05:52:56.708Z,14.8
2022-12-08T05:58:01.905Z,14.9
2022-12-08T06:03:01.440Z,15
2022-12-08T06:08:03.474Z,15.2
2022-12-08T06:13:05.565Z,15.3
2022-12-08T06:18:07.675Z,15.5
2022-12-08T06:23:09.820Z,15.6
2022-12-08T06:28:12.131Z,15.8
2022-12-08T06:33:14.346Z,15.9
2022-12-08T06:38:16.533Z,16
2022-12-08T06:43:18.713Z,16
2022-12-08T06:48:20.854Z,16.1
2022-12-08T06:53:23.003Z,16.1
2022-12-08T06:58:25.151Z,16.2
2022-12-08T07:03:27.263Z,16.2
2022-12-08T07:08:29.511Z,16.2
2022-12-08T07:13:31.728Z,16.3
2022-12-08T07:18:33.871Z,16.3
2022-12-08T07:23:36.238Z,16.3
2022-12-08T07:28:38.436Z,16.2
2022-12-08T07:33:40.539Z,16.2
2022-12-08T07:38:42.695Z,16.1
2022-12-08T07:43:44.874Z,16.1
2022-12-08T07:48:46.970Z,16
2022-12-08T07:53:53.667Z,16
2022-12-08T07:58:51.487Z,16
2022-12-08T08:03:53.555Z,16
2022-12-08T08:08:55.880Z,16
2022-12-08T08:13:58.091Z,15.9
2022-12-08T08:19:00.251Z,15.8
2022-12-08T08:24:02.404Z,15.8
2022-12-08T08:29:04.744Z,15.8
2022-12-08T08:34:06.873Z,15.8
2022-12-08T08:39:09.186Z,15.8
2022-12-08T08:44:11.385Z,15.8
2022-12-08T08:49:13.615Z,15.8
2022-12-08T08:54:15.810Z,15.8
2022-12-08T08:59:18.352Z,15.8
2022-12-08T09:04:20.715Z,15.8
2022-12-08T09:09:22.904Z,15.7
2022-12-08T09:14:25.095Z,15.7
2022-12-08T09:19:27.206Z,15.7
2022-12-08T09:24:29.501Z,15.7
2022-12-08T09:29:35.843Z,15.6
2022-12-08T09:34:33.923Z,15.6
2022-12-08T09:39:36.059Z,15.6
2022-12-08T09:44:38.226Z,15.6
2022-12-08T09:49:40.346Z,15.6
2022-12-08T09:54:42.484Z,15.5
2022-12-08T09:59:44.716Z,15.5
2022-12-08T10:04:46.896Z,15.4
2022-12-08T10:09:48.991Z,15.4
2022-12-08T10:14:51.158Z,15.3
2022-12-08T10:19:53.282Z,15.3
2022-12-08T10:24:55.412Z,15.3
2022-12-08T10:29:57.884Z,15.2
2022-12-08T10:35:00.117Z,15.2
2022-12-08T10:40:02.861Z,15.2
2022-12-08T10:45:04.636Z,15.2
2022-12-08T10:50:07.120Z,15.2
2022-12-08T10:55:08.906Z,15.2
2022-12-08T11:00:14.101Z,15.2
2022-12-08T11:05:13.194Z,15.2
2022-12-08T11:10:15.431Z,15.2
2022-12-08T11:15:17.711Z,15.1
2022-12-08T11:20:20.039Z,15.1
2022-12-08T11:25:22.144Z,15
2022-12-08T11:30:24.304Z,15
2022-12-08T11:35:26.422Z,15
2022-12-08T11:40:28.556Z,15
2022-12-08T11:45:30.766Z,14.9
2022-12-08T11:50:32.861Z,14.9
2022-12-08T11:55:35.452Z,14.9
2022-12-08T12:00:37.305Z,14.9
2022-12-08T12:06:05.713Z,14.9
2022-12-08T12:10:41.798Z,14.9
2022-12-08T12:15:44.197Z,14.9
2022-12-08T12:20:46.550Z,14.9
2022-12-08T12:25:48.875Z,14.9
2022-12-08T12:30:51.230Z,14.9
2022-12-08T12:35:53.579Z,14.9
2022-12-08T12:40:55.734Z,14.9
2022-12-08T12:45:57.924Z,14.9
2022-12-08T12:51:00.001Z,14.9
2022-12-08T12:56:02.157Z,14.9
2022-12-08T13:01:04.311Z,14.9
2022-12-08T13:06:10.010Z,14.9
2022-12-08T13:11:08.666Z,14.9
2022-12-08T13:16:18.744Z,14.8
2022-12-08T13:21:13.327Z,14.8
2022-12-08T13:26:15.474Z,14.7
2022-12-08T13:31:17.675Z,14.7
2022-12-08T13:36:19.797Z,14.6
2022-12-08T13:41:21.980Z,14.6
2022-12-08T13:47:03.059Z,14.6
2022-12-08T13:57:02.992Z,14.6
2022-12-08T14:01:30.876Z,14.5
2022-12-08T14:06:32.930Z,14.5
2022-12-08T14:11:35.119Z,14.5
2022-12-08T14:16:37.490Z,14.5
2022-12-08T14:21:39.625Z,14.5
2022-12-08T14:26:41.757Z,14.5
2022-12-08T14:31:43.922Z,14.5
2022-12-08T14:36:46.025Z,14.5
2022-12-08T14:41:48.162Z,14.5
2022-12-08T14:46:50.384Z,14.4
2022-12-08T14:51:52.442Z,14.3
2022-12-08T14:56:54.582Z,14.3
2022-12-08T15:01:56.792Z,14.3
2022-12-08T15:06:58.845Z,14.3
2022-12-08T15:12:00.978Z,14.3
2022-12-08T15:17:03.187Z,14.4
2022-12-08T15:22:05.371Z,14.4
2022-12-08T15:27:07.520Z,14.5
2022-12-08T15:32:09.746Z,14.6
2022-12-08T15:37:11.860Z,14.7
2022-12-08T15:42:14.034Z,14.8
2022-12-08T15:47:16.387Z,14.9
2022-12-08T15:52:18.562Z,15
2022-12-08T15:57:35.828Z,15.1
2022-12-08T16:02:25.006Z,15.2
2022-12-08T16:07:25.332Z,15.3
2022-12-08T16:12:27.681Z,15.4
2022-12-08T16:17:29.756Z,15.4
2022-12-08T16:32:36.563Z,15.5
2022-12-08T16:37:38.691Z,15.5
2022-12-08T16:42:40.825Z,15.6
2022-12-08T16:47:42.988Z,15.6
2022-12-08T16:52:45.104Z,15.6
2022-12-08T16:57:47.387Z,15.6
2022-12-08T17:02:49.560Z,15.7
2022-12-08T17:07:51.854Z,15.8
2022-12-08T17:12:54.114Z,15.9
2022-12-08T17:17:56.298Z,16
2022-12-08T17:22:58.405Z,16.1
2022-12-08T17:28:00.544Z,16.3
2022-12-08T17:33:02.708Z,16.3
2022-12-08T17:38:04.858Z,16.4
2022-12-08T17:43:07.033Z,16.4
2022-12-08T17:48:09.205Z,16.4
2022-12-08T17:53:11.414Z,16.4
2022-12-08T17:58:13.571Z,16.5
2022-12-08T18:03:15.733Z,16.5
2022-12-08T18:08:17.910Z,16.5
2022-12-08T18:13:19.989Z,16.5
2022-12-08T18:18:22.165Z,16.5
2022-12-08T18:23:24.307Z,16.5
2022-12-08T18:28:26.506Z,16.5
2022-12-08T18:33:28.877Z,16.5
2022-12-08T18:38:31.161Z,16.5
2022-12-08T18:43:33.405Z,16.4
2022-12-08T18:48:35.589Z,16.4
2022-12-08T18:53:37.697Z,16.4
2022-12-08T18:58:39.894Z,16.4
2022-12-08T19:03:48.856Z,16.3
2022-12-08T19:08:44.303Z,16.3
2022-12-08T19:13:46.406Z,16.3
2022-12-08T19:18:48.563Z,16.4
2022-12-08T19:23:50.736Z,16.4
2022-12-08T19:28:53.082Z,16.5
2022-12-08T19:33:55.276Z,16.6
2022-12-08T19:38:57.479Z,16.7
2022-12-08T19:43:59.640Z,16.7
2022-12-08T19:49:01.802Z,16.8
2022-12-08T19:54:03.883Z,16.9
2022-12-08T19:59:06.078Z,16.9
2022-12-08T20:04:08.265Z,16.9
2022-12-08T20:09:10.529Z,16.9
2022-12-08T20:14:12.670Z,16.9
2022-12-08T20:19:14.992Z,17
2022-12-08T20:24:17.270Z,16.9
2022-12-08T20:29:19.373Z,16.9
2022-12-08T20:34:21.547Z,16.9
2022-12-08T20:39:23.664Z,16.9
2022-12-08T20:44:25.817Z,16.9
2022-12-08T20:49:32.855Z,16.8
2022-12-08T20:54:30.115Z,16.8
2022-12-08T20:59:32.383Z,16.8
2022-12-08T21:04:34.662Z,16.7
2022-12-08T21:09:36.687Z,16.7
2022-12-08T21:14:38.974Z,16.6
2022-12-08T21:19:41.177Z,16.6
2022-12-08T21:24:43.285Z,16.5
2022-12-08T21:29:45.571Z,16.5
2022-12-08T21:34:47.714Z,16.4
2022-12-08T21:39:49.685Z,16.4
2022-12-08T21:44:51.838Z,16.3
2022-12-08T21:49:54.168Z,16.3
2022-12-08T21:54:56.172Z,16.3
2022-12-08T21:59:58.366Z,16.2
2022-12-08T22:05:00.614Z,16.2
2022-12-08T22:10:02.916Z,16.2
2022-12-08T22:15:04.891Z,16.1
2022-12-08T22:20:07.676Z,16.1
2022-12-08T22:25:09.403Z,16.1
2022-12-08T22:30:12.090Z,16
2022-12-08T22:35:13.656Z,16
2022-12-08T22:40:15.648Z,16
2022-12-08T22:45:18.004Z,16
2022-12-08T22:50:20.211Z,16
2022-12-08T22:55:22.253Z,15.9
2022-12-08T23:00:24.570Z,15.9
2022-12-08T23:05:27.036Z,15.9
2022-12-08T23:10:29.307Z,15.8
2022-12-08T23:15:31.561Z,15.8
2022-12-08T23:20:33.624Z,15.7
2022-12-08T23:25:35.822Z,15.6
2022-12-08T23:30:37.989Z,15.6
2022-12-08T23:35:40.327Z,15.5
2022-12-08T23:40:42.717Z,15.5
2022-12-08T23:45:44.896Z,15.4
2022-12-08T23:50:47.092Z,15.4
2022-12-08T23:55:49.308Z,15.4
